Time;durP1;ratioP1;P1;durP2;ratioP2;P2;SDS_P1;SDS_P2;PMS_P1;PMS_P2;Temp;Humidity;BMP_temperature;BMP_pressure;BME280_temperature;BME280_humidity;BME280_pressure;Samples;Min_cycle;Max_cycle;Signal;HPM_P1;HPM_P2
2022/09/19 00:02:13;;;;;;;;;;;11.60;99.90;;;;;;5069414;28;19917;-67
2022/09/19 00:04:38;;;;;;;;;;;13.10;99.90;;;;;;5074701;28;19927;-66
2022/09/19 00:07:04;;;;;;;;;;;11.60;99.90;;;;;;5075043;28;19920;-66
2022/09/19 00:09:31;;;;;;;;;;;11.60;99.90;;;;;;5074999;28;20345;-68
2022/09/19 00:11:57;;;;;;;;;;;11.60;99.90;;;;;;5074609;28;20385;-68
2022/09/19 00:14:24;;;;;;;;;;;11.50;99.90;;;;;;5074460;28;19927;-69
2022/09/19 00:16:53;;;;;;;;;;;11.50;99.90;;;;;;5065205;28;19920;-57
2022/09/19 00:19:19;;;;;;;;;;;11.40;99.90;;;;;;5072079;28;19924;-67
2022/09/19 00:21:46;;;;;;;;;;;11.40;99.90;;;;;;5074272;28;20389;-67
2022/09/19 00:26:58;;;;;;;;;;;11.50;99.90;;;;;;5073988;28;19921;-71
2022/09/19 00:29:24;;;;;;;;;;;11.60;99.90;;;;;;5074054;28;19924;-70
2022/09/19 00:31:50;;;;;;;;;;;11.40;99.90;;;;;;5055973;28;19921;-58
2022/09/19 00:34:17;;;;;;;;;;;11.40;99.90;;;;;;5063914;28;19924;-57
2022/09/19 00:36:43;;;;;;;;;;;11.40;99.90;;;;;;5054098;28;19932;-56
2022/09/19 00:39:13;;;;;;;;;;;11.40;99.90;;;;;;5070395;28;19921;-57
2022/09/19 00:41:39;;;;;;;;;;;11.50;99.90;;;;;;5058115;28;20484;-58
2022/09/19 00:44:22;;;;;;;;;;;11.40;99.90;;;;;;5073929;28;19927;-57
2022/09/19 00:46:50;;;;;;;;;;;11.40;99.90;;;;;;5073207;28;19928;-57
2022/09/19 00:49:18;;;;;;;;;;;11.40;99.90;;;;;;5073896;28;19921;-57
2022/09/19 00:51:47;;;;;;;;;;;11.40;99.90;;;;;;5073984;28;20325;-63
2022/09/19 00:54:32;;;;;;;;;;;11.50;99.90;;;;;;5073945;28;19924;-63
2022/09/19 00:56:58;;;;;;;;;;;11.50;99.90;;;;;;5073835;28;19920;-57
2022/09/19 00:59:25;;;;;;;;;;;11.60;99.90;;;;;;5073588;28;19928;-58
2022/09/19 01:01:53;;;;;;;;;;;11.70;99.90;;;;;;5073001;28;20286;-57
2022/09/19 01:04:20;;;;;;;;;;;11.70;99.90;;;;;;5073358;28;19924;-57
2022/09/19 01:06:46;;;;;;;;;;;11.70;99.90;;;;;;5055867;28;19985;-56
2022/09/19 01:09:14;;;;;;;;;;;11.70;99.90;;;;;;5055498;28;20441;-56
2022/09/19 01:11:49;;;;;;;;;;;11.70;99.90;;;;;;5055515;28;19947;-56
2022/09/19 01:14:17;;;;;;;;;;;11.60;99.90;;;;;;5073686;28;20006;-57
2022/09/19 01:16:50;;;;;;;;;;;11.60;99.90;;;;;;5072838;28;19920;-57
2022/09/19 01:19:23;;;;;;;;;;;11.60;99.90;;;;;;5073074;28;19974;-59
2022/09/19 01:22:01;;;;;;;;;;;11.60;99.90;;;;;;5073519;28;19920;-56
2022/09/19 01:24:37;;;;;;;;;;;11.60;99.90;;;;;;5073395;28;20008;-56
2022/09/19 01:27:12;;;;;;;;;;;11.60;99.90;;;;;;5071053;28;19921;-57
2022/09/19 01:29:44;;;;;;;;;;;11.70;99.90;;;;;;5057360;28;20274;-58
2022/09/19 01:32:12;;;;;;;;;;;11.70;99.90;;;;;;5073304;28;20014;-57
2022/09/19 01:34:40;;;;;;;;;;;11.70;99.90;;;;;;5072859;28;19926;-57
2022/09/19 01:37:16;;;;;;;;;;;11.80;99.90;;;;;;5066765;28;20008;-56
2022/09/19 01:39:44;;;;;;;;;;;11.80;99.90;;;;;;5057636;28;19920;-57
2022/09/19 01:42:13;;;;;;;;;;;11.80;99.90;;;;;;5072447;28;19990;-57
2022/09/19 01:44:39;;;;;;;;;;;11.80;99.90;;;;;;5072712;28;19978;-58
2022/09/19 01:47:23;;;;;;;;;;;11.80;99.90;;;;;;5072854;28;19967;-57
2022/09/19 01:49:50;;;;;;;;;;;11.90;99.90;;;;;;5058044;28;19921;-57
2022/09/19 01:52:21;;;;;;;;;;;11.90;99.90;;;;;;5072292;28;19978;-56
2022/09/19 01:54:56;;;;;;;;;;;11.90;99.90;;;;;;5072338;28;19931;-56
2022/09/19 01:57:40;;;;;;;;;;;11.90;99.90;;;;;;5072331;28;19924;-56
2022/09/19 02:00:15;;;;;;;;;;;11.90;99.90;;;;;;5072789;28;20033;-56
2022/09/19 02:02:56;;;;;;;;;;;11.90;99.90;;;;;;5071819;28;19928;-57
2022/09/19 02:05:41;;;;;;;;;;;12.00;99.90;;;;;;5072415;28;19921;-60
2022/09/19 02:08:29;;;;;;;;;;;12.00;99.90;;;;;;5072585;28;19931;-66
2022/09/19 02:10:57;;;;;;;;;;;11.90;99.90;;;;;;5072988;28;19920;-64
2022/09/19 02:13:27;;;;;;;;;;;12.00;99.90;;;;;;5072283;28;19921;-71
2022/09/19 02:15:59;;;;;;;;;;;11.90;99.90;;;;;;5072438;28;20449;-66
2022/09/19 02:18:35;;;;;;;;;;;11.90;99.90;;;;;;5044782;28;19999;-57
2022/09/19 02:21:03;;;;;;;;;;;11.80;99.90;;;;;;5072829;28;19920;-68
2022/09/19 02:23:32;;;;;;;;;;;12.00;99.90;;;;;;5054426;28;20298;-64
2022/09/19 02:26:01;;;;;;;;;;;11.80;99.90;;;;;;5069636;28;20388;-57
2022/09/19 02:28:29;;;;;;;;;;;11.70;99.90;;;;;;5063242;28;19920;-57
2022/09/19 02:30:55;;;;;;;;;;;11.80;99.90;;;;;;5072056;28;20393;-57
2022/09/19 02:33:21;;;;;;;;;;;11.80;99.90;;;;;;5072249;28;19920;-57
2022/09/19 02:35:47;;;;;;;;;;;11.80;99.90;;;;;;5072612;28;20027;-60
2022/09/19 02:38:25;;;;;;;;;;;11.80;99.90;;;;;;5072223;28;19929;-62
2022/09/19 02:41:00;;;;;;;;;;;11.80;99.90;;;;;;5053811;28;19924;-67
2022/09/19 02:43:33;;;;;;;;;;;11.80;99.90;;;;;;5071673;28;19930;-58
2022/09/19 02:46:05;;;;;;;;;;;11.80;99.90;;;;;;5072399;28;19973;-61
2022/09/19 02:48:54;;;;;;;;;;;11.80;99.90;;;;;;5072408;28;19920;-63
2022/09/19 02:51:26;;;;;;;;;;;11.90;99.90;;;;;;5075287;28;20386;-60
2022/09/19 02:54:00;;;;;;;;;;;11.90;99.90;;;;;;5076083;28;19920;-57
2022/09/19 02:56:33;;;;;;;;;;;11.80;99.90;;;;;;5074630;28;20431;-59
2022/09/19 02:59:04;;;;;;;;;;;11.80;99.90;;;;;;5075392;28;19920;-60
2022/09/19 03:01:31;;;;;;;;;;;11.70;99.90;;;;;;5057752;28;20014;-58
2022/09/19 03:04:14;;;;;;;;;;;12.20;99.90;;;;;;5075678;28;19926;-57
2022/09/19 03:06:49;;;;;;;;;;;11.70;99.90;;;;;;5075982;28;19920;-60
2022/09/19 03:09:16;;;;;;;;;;;11.70;99.90;;;;;;5075803;28;20015;-60
2022/09/19 03:11:47;;;;;;;;;;;11.70;99.90;;;;;;5057226;28;19931;-59
2022/09/19 03:14:12;;;;;;;;;;;11.70;99.90;;;;;;5075628;28;20416;-57
2022/09/19 03:16:40;;;;;;;;;;;11.70;99.90;;;;;;5075647;28;19963;-61
2022/09/19 03:19:06;;;;;;;;;;;11.70;99.90;;;;;;5075859;28;20018;-59
2022/09/19 03:21:32;;;;;;;;;;;11.70;99.90;;;;;;5075560;28;19955;-57
2022/09/19 03:23:58;;;;;;;;;;;11.60;99.90;;;;;;5075468;28;20475;-57
2022/09/19 03:26:30;;;;;;;;;;;11.60;99.90;;;;;;5074659;28;19924;-58
2022/09/19 03:28:56;;;;;;;;;;;11.70;99.90;;;;;;5075748;28;19973;-57
2022/09/19 03:31:22;;;;;;;;;;;11.70;99.90;;;;;;5074936;28;20370;-58
2022/09/19 03:33:48;;;;;;;;;;;11.70;99.90;;;;;;5075195;28;19920;-64
2022/09/19 03:36:14;;;;;;;;;;;11.70;99.90;;;;;;5075311;28;20336;-63
2022/09/19 03:38:44;;;;;;;;;;;11.70;99.90;;;;;;5075540;28;19943;-61
2022/09/19 03:41:10;;;;;;;;;;;11.70;99.90;;;;;;5074899;28;19920;-65
2022/09/19 03:43:36;;;;;;;;;;;11.70;99.90;;;;;;5074991;28;19934;-61
2022/09/19 03:46:01;;;;;;;;;;;11.90;99.90;;;;;;5074882;28;19924;-62
2022/09/19 03:48:27;;;;;;;;;;;11.70;99.90;;;;;;5075182;28;19920;-63
2022/09/19 03:50:53;;;;;;;;;;;12.10;99.90;;;;;;5075450;28;19921;-62
2022/09/19 03:53:19;;;;;;;;;;;11.70;99.90;;;;;;5074875;28;19924;-57
2022/09/19 03:55:45;;;;;;;;;;;11.70;99.90;;;;;;5069806;28;19920;-60
2022/09/19 03:58:11;;;;;;;;;;;11.70;99.90;;;;;;5063658;28;19921;-63
2022/09/19 04:00:37;;;;;;;;;;;11.80;99.90;;;;;;5073922;28;19924;-62
2022/09/19 04:03:02;;;;;;;;;;;11.80;99.90;;;;;;5074979;28;19924;-61
2022/09/19 04:05:28;;;;;;;;;;;11.80;99.90;;;;;;5074879;28;19979;-58
2022/09/19 04:07:54;;;;;;;;;;;11.80;99.90;;;;;;5074809;28;20366;-57
2022/09/19 04:10:20;;;;;;;;;;;11.70;99.90;;;;;;5055969;28;19971;-57
2022/09/19 04:12:48;;;;;;;;;;;11.80;99.90;;;;;;5074898;28;19924;-57
2022/09/19 04:15:14;;;;;;;;;;;11.70;99.90;;;;;;5074037;28;20290;-58
2022/09/19 04:17:40;;;;;;;;;;;11.70;99.90;;;;;;5074480;28;19924;-57
2022/09/19 04:20:05;;;;;;;;;;;11.70;99.90;;;;;;5074803;28;19924;-57
2022/09/19 04:22:31;;;;;;;;;;;11.70;99.90;;;;;;5074582;28;19920;-70
2022/09/19 04:24:57;;;;;;;;;;;11.70;99.90;;;;;;5056154;28;19920;-70
2022/09/19 04:27:22;;;;;;;;;;;11.80;99.90;;;;;;5070941;28;20383;-57
2022/09/19 04:29:48;;;;;;;;;;;11.70;99.90;;;;;;5074082;28;19924;-57
2022/09/19 04:32:15;;;;;;;;;;;11.80;99.90;;;;;;5074258;28;19927;-68
2022/09/19 04:34:43;;;;;;;;;;;11.90;99.90;;;;;;5055930;28;19920;-57
2022/09/19 04:37:09;;;;;;;;;;;11.90;99.90;;;;;;5074393;28;19921;-57
2022/09/19 04:39:34;;;;;;;;;;;11.90;99.90;;;;;;5056393;28;19920;-57
2022/09/19 04:42:01;;;;;;;;;;;11.90;99.90;;;;;;5055424;28;20397;-57
2022/09/19 04:44:28;;;;;;;;;;;12.40;99.90;;;;;;5073389;28;20038;-61
2022/09/19 04:46:54;;;;;;;;;;;12.20;99.90;;;;;;5073747;28;19921;-57
2022/09/19 04:49:20;;;;;;;;;;;12.00;99.90;;;;;;5056363;28;19916;-61
2022/09/19 04:51:45;;;;;;;;;;;11.90;99.90;;;;;;5074367;28;20312;-57
2022/09/19 04:54:11;;;;;;;;;;;12.20;99.90;;;;;;5073619;28;19925;-59
2022/09/19 04:56:37;;;;;;;;;;;11.90;99.90;;;;;;5066765;28;19924;-57
2022/09/19 04:59:03;;;;;;;;;;;11.90;99.90;;;;;;5060629;28;19969;-57
2022/09/19 05:01:30;;;;;;;;;;;11.90;99.90;;;;;;5073148;28;19921;-58
2022/09/19 05:03:56;;;;;;;;;;;11.90;99.90;;;;;;5073350;28;19924;-56
2022/09/19 05:06:22;;;;;;;;;;;11.80;99.90;;;;;;5073387;28;20123;-59
2022/09/19 05:08:50;;;;;;;;;;;11.80;99.90;;;;;;5073770;28;19931;-56
2022/09/19 05:11:18;;;;;;;;;;;11.80;99.90;;;;;;5072367;28;20374;-56
2022/09/19 05:13:44;;;;;;;;;;;11.80;99.90;;;;;;5072803;28;19917;-59
2022/09/19 05:16:10;;;;;;;;;;;11.80;99.90;;;;;;5071487;28;19920;-56
2022/09/19 05:18:37;;;;;;;;;;;11.80;99.90;;;;;;5064477;28;19925;-56
2022/09/19 05:21:07;;;;;;;;;;;11.80;99.90;;;;;;5073530;28;19920;-60
2022/09/19 05:23:35;;;;;;;;;;;11.80;99.90;;;;;;5071541;28;19920;-60
2022/09/19 05:26:02;;;;;;;;;;;11.80;99.90;;;;;;5068886;28;19924;-58
2022/09/19 05:28:28;;;;;;;;;;;11.80;99.90;;;;;;5062929;28;19998;-58
2022/09/19 05:30:55;;;;;;;;;;;11.70;99.90;;;;;;5061860;28;20074;-60
2022/09/19 05:33:26;;;;;;;;;;;11.80;99.90;;;;;;5055971;28;20011;-57
2022/09/19 05:35:55;;;;;;;;;;;11.70;99.90;;;;;;5061037;28;20345;-61
2022/09/19 05:38:24;;;;;;;;;;;11.70;99.90;;;;;;5055091;28;20267;-59
2022/09/19 05:40:53;;;;;;;;;;;11.80;99.90;;;;;;5055953;28;20742;-58
2022/09/19 05:43:19;;;;;;;;;;;11.80;99.90;;;;;;5035389;28;19921;-56
2022/09/19 05:45:44;;;;;;;;;;;11.80;99.90;;;;;;5052719;28;19927;-57
2022/09/19 05:48:10;;;;;;;;;;;11.80;99.90;;;;;;5057425;28;20328;-57
2022/09/19 05:50:36;;;;;;;;;;;11.80;99.90;;;;;;5054941;28;20285;-60
2022/09/19 05:55:47;;;;;;;;;;;11.80;99.90;;;;;;5064941;28;20010;-57
2022/09/19 05:58:15;;;;;;;;;;;11.80;99.90;;;;;;5063142;28;20007;-56
2022/09/19 06:00:40;;;;;;;;;;;11.90;99.90;;;;;;5060021;28;19974;-57
2022/09/19 06:03:07;;;;;;;;;;;11.90;99.90;;;;;;5067329;28;20328;-57
2022/09/19 06:05:40;;;;;;;;;;;12.00;99.90;;;;;;5071117;28;19921;-58
2022/09/19 06:08:07;;;;;;;;;;;12.00;99.90;;;;;;5071416;28;19924;-59
2022/09/19 06:10:34;;;;;;;;;;;12.00;99.90;;;;;;5072234;28;19939;-57
2022/09/19 06:12:59;;;;;;;;;;;12.00;99.90;;;;;;5072338;28;19978;-57
2022/09/19 06:15:25;;;;;;;;;;;12.10;99.90;;;;;;5071976;28;19971;-57
2022/09/19 06:17:54;;;;;;;;;;;12.10;99.90;;;;;;5071565;28;19927;-61
2022/09/19 06:20:19;;;;;;;;;;;12.00;99.90;;;;;;5071472;28;19978;-57
2022/09/19 06:22:45;;;;;;;;;;;12.00;99.90;;;;;;5071978;28;20367;-56
2022/09/19 06:25:12;;;;;;;;;;;12.00;99.90;;;;;;5070594;28;19921;-57
2022/09/19 06:27:39;;;;;;;;;;;12.00;99.90;;;;;;5071250;28;19920;-56
2022/09/19 06:30:05;;;;;;;;;;;12.00;99.90;;;;;;5052545;28;20567;-60
2022/09/19 06:32:31;;;;;;;;;;;12.00;99.90;;;;;;5052928;28;19927;-56
2022/09/19 06:34:57;;;;;;;;;;;12.10;99.90;;;;;;5073756;28;20413;-57
2022/09/19 06:37:22;;;;;;;;;;;12.10;99.90;;;;;;5062785;28;19920;-57
2022/09/19 06:39:48;;;;;;;;;;;12.20;99.90;;;;;;5072222;28;19921;-56
2022/09/19 06:42:13;;;;;;;;;;;12.30;99.90;;;;;;5071795;28;19920;-57
2022/09/19 06:44:39;;;;;;;;;;;12.50;99.90;;;;;;5070765;28;19920;-60
2022/09/19 06:47:06;;;;;;;;;;;12.40;99.90;;;;;;5071722;28;19920;-68
2022/09/19 06:49:32;;;;;;;;;;;12.40;99.90;;;;;;5071610;28;19962;-57
2022/09/19 06:51:58;;;;;;;;;;;12.50;99.90;;;;;;5071408;28;19920;-69
2022/09/19 06:54:23;;;;;;;;;;;12.50;99.90;;;;;;5071674;28;19932;-67
2022/09/19 06:56:50;;;;;;;;;;;12.50;99.90;;;;;;5071713;28;19927;-57
2022/09/19 06:59:17;;;;;;;;;;;12.50;99.90;;;;;;5070754;28;20001;-58
2022/09/19 07:01:42;;;;;;;;;;;12.50;99.90;;;;;;5053766;28;19974;-57
2022/09/19 07:04:08;;;;;;;;;;;12.50;99.90;;;;;;5067498;28;20305;-70
2022/09/19 07:06:37;;;;;;;;;;;12.50;99.90;;;;;;5060958;28;19939;-69
2022/09/19 07:09:03;;;;;;;;;;;12.50;99.90;;;;;;5061382;28;19920;-60
2022/09/19 07:11:29;;;;;;;;;;;12.60;99.90;;;;;;5070819;28;19971;-60
2022/09/19 07:13:54;;;;;;;;;;;12.70;99.90;;;;;;5063457;28;19931;-63
2022/09/19 07:16:20;;;;;;;;;;;12.70;99.90;;;;;;5064662;28;19924;-62
2022/09/19 07:18:45;;;;;;;;;;;12.70;99.90;;;;;;5057784;28;20018;-64
2022/09/19 07:21:11;;;;;;;;;;;12.80;99.90;;;;;;5064535;28;20027;-64
2022/09/19 07:23:37;;;;;;;;;;;12.80;99.90;;;;;;5055752;28;19960;-64
2022/09/19 07:26:03;;;;;;;;;;;12.80;99.90;;;;;;5055086;28;19931;-63
2022/09/19 07:28:28;;;;;;;;;;;12.90;99.90;;;;;;5055300;28;19951;-63
2022/09/19 07:30:57;;;;;;;;;;;13.00;99.90;;;;;;5058753;28;19924;-59
2022/09/19 07:33:25;;;;;;;;;;;13.00;99.90;;;;;;5056594;28;20016;-59
2022/09/19 07:35:53;;;;;;;;;;;13.10;99.90;;;;;;5058529;28;20420;-58
2022/09/19 07:38:19;;;;;;;;;;;13.20;99.90;;;;;;5064405;28;19971;-61
2022/09/19 07:40:45;;;;;;;;;;;13.40;99.90;;;;;;5042263;28;19920;-61
2022/09/19 07:43:14;;;;;;;;;;;13.40;99.90;;;;;;5064912;28;19924;-58
2022/09/19 07:45:47;;;;;;;;;;;13.50;99.90;;;;;;5060671;28;19924;-58
2022/09/19 07:48:14;;;;;;;;;;;13.80;99.90;;;;;;5046771;28;20287;-57
2022/09/19 07:50:39;;;;;;;;;;;14.10;99.90;;;;;;5063473;28;19927;-58
2022/09/19 07:53:06;;;;;;;;;;;14.10;99.90;;;;;;5061763;28;19924;-59
2022/09/19 07:55:32;;;;;;;;;;;14.10;99.90;;;;;;5058881;28;19931;-58
2022/09/19 07:57:58;;;;;;;;;;;14.30;99.90;;;;;;5070111;28;19924;-59
2022/09/19 08:00:25;;;;;;;;;;;14.20;99.90;;;;;;5055069;28;19942;-61
2022/09/19 08:02:58;;;;;;;;;;;14.60;99.90;;;;;;5069606;28;19978;-61
2022/09/19 08:05:24;;;;;;;;;;;14.60;99.90;;;;;;5069794;28;19930;-62
2022/09/19 08:07:50;;;;;;;;;;;14.50;99.90;;;;;;5069849;28;20302;-61
2022/09/19 08:10:15;;;;;;;;;;;13.50;99.90;;;;;;5059092;28;19931;-61
2022/09/19 08:12:44;;;;;;;;;;;14.70;99.90;;;;;;5068642;28;19928;-59
2022/09/19 08:15:09;;;;;;;;;;;14.60;99.90;;;;;;5069231;28;20366;-66
2022/09/19 08:17:36;;;;;;;;;;;15.00;99.90;;;;;;5069856;28;19924;-69
2022/09/19 08:20:02;;;;;;;;;;;15.30;99.90;;;;;;5070517;28;20263;-68
2022/09/19 08:22:28;;;;;;;;;;;15.60;99.90;;;;;;5070039;28;19924;-65
2022/09/19 08:24:54;;;;;;;;;;;15.70;99.90;;;;;;5070480;28;20300;-65
2022/09/19 08:27:19;;;;;;;;;;;15.80;99.90;;;;;;5070275;28;19925;-57
2022/09/19 08:29:45;;;;;;;;;;;15.90;99.90;;;;;;5070254;28;19924;-61
2022/09/19 08:32:11;;;;;;;;;;;16.30;99.90;;;;;;5070752;28;19932;-62
2022/09/19 08:34:37;;;;;;;;;;;16.50;99.90;;;;;;5061332;28;19931;-61
2022/09/19 08:37:03;;;;;;;;;;;16.80;99.90;;;;;;5065179;28;19986;-60
2022/09/19 08:39:29;;;;;;;;;;;16.90;99.90;;;;;;5069053;28;19924;-60
2022/09/19 08:42:11;;;;;;;;;;;17.10;99.90;;;;;;5060631;28;19924;-58
2022/09/19 08:44:40;;;;;;;;;;;17.20;99.90;;;;;;5059845;28;19924;-59
2022/09/19 08:47:26;;;;;;;;;;;17.40;99.90;;;;;;5060981;28;19979;-59
2022/09/19 08:49:57;;;;;;;;;;;17.50;99.90;;;;;;5060264;28;19924;-58
2022/09/19 08:52:39;;;;;;;;;;;18.50;99.90;;;;;;5060699;28;19938;-58
2022/09/19 08:55:06;;;;;;;;;;;18.10;99.90;;;;;;5062029;28;20279;-59
2022/09/19 08:57:36;;;;;;;;;;;17.80;99.90;;;;;;5063679;28;19924;-58
2022/09/19 09:00:15;;;;;;;;;;;17.30;99.90;;;;;;5061074;28;19978;-58
2022/09/19 09:02:49;;;;;;;;;;;17.10;99.90;;;;;;5058010;28;19928;-58
2022/09/19 09:05:17;;;;;;;;;;;16.90;99.90;;;;;;5069646;28;19928;-58
2022/09/19 09:07:55;;;;;;;;;;;16.70;99.90;;;;;;5068844;28;19962;-60
2022/09/19 09:10:30;;;;;;;;;;;17.00;99.90;;;;;;5069195;28;20311;-58
2022/09/19 09:12:55;;;;;;;;;;;16.70;99.90;;;;;;5051038;28;19924;-58
2022/09/19 09:15:28;;;;;;;;;;;16.90;99.90;;;;;;5069113;28;20070;-59
2022/09/19 09:18:01;;;;;;;;;;;17.00;99.90;;;;;;5068926;28;19921;-58
2022/09/19 09:20:27;;;;;;;;;;;17.00;99.90;;;;;;5068838;28;19936;-59
2022/09/19 09:23:05;;;;;;;;;;;17.40;99.90;;;;;;5068205;28;19932;-59
2022/09/19 09:25:32;;;;;;;;;;;17.20;99.90;;;;;;5066330;28;20058;-59
2022/09/19 09:28:11;;;;;;;;;;;17.30;99.90;;;;;;5068137;28;19924;-58
2022/09/19 09:30:40;;;;;;;;;;;17.60;99.90;;;;;;5068172;28;20010;-58
2022/09/19 09:33:10;;;;;;;;;;;17.40;99.90;;;;;;5067950;28;20473;-58
2022/09/19 09:35:43;;;;;;;;;;;17.00;99.90;;;;;;5056649;28;20638;-59
2022/09/19 09:38:12;;;;;;;;;;;16.90;99.90;;;;;;5068681;28;19925;-58
2022/09/19 09:43:27;;;;;;;;;;;17.00;99.90;;;;;;5068607;28;19924;-58
2022/09/19 09:45:54;;;;;;;;;;;17.60;99.90;;;;;;5050359;28;20011;-58
2022/09/19 09:48:24;;;;;;;;;;;17.80;99.90;;;;;;5068431;28;19931;-58
2022/09/19 09:50:58;;;;;;;;;;;17.30;99.90;;;;;;5069484;28;20431;-58
2022/09/19 09:53:24;;;;;;;;;;;17.00;99.90;;;;;;5069030;28;19928;-58
2022/09/19 09:56:15;;;;;;;;;;;16.90;99.90;;;;;;5067894;28;19985;-58
2022/09/19 09:58:49;;;;;;;;;;;16.80;99.90;;;;;;5058993;28;19928;-58
2022/09/19 10:04:12;;;;;;;;;;;17.60;99.90;;;;;;5044687;28;20019;-58
2022/09/19 10:06:43;;;;;;;;;;;17.10;99.90;;;;;;5059261;28;20348;-64
2022/09/19 10:09:35;;;;;;;;;;;15.90;99.90;;;;;;5060187;28;20013;-64
2022/09/19 10:12:26;;;;;;;;;;;15.60;99.90;;;;;;5052542;28;19924;-60
2022/09/19 10:14:55;;;;;;;;;;;15.30;99.90;;;;;;5055100;28;20345;-59
2022/09/19 10:17:21;;;;;;;;;;;15.10;99.90;;;;;;5058735;28;20469;-61
2022/09/19 10:19:49;;;;;;;;;;;15.20;99.90;;;;;;5060898;28;19950;-58
2022/09/19 10:22:15;;;;;;;;;;;15.30;99.90;;;;;;5058257;28;19924;-61
2022/09/19 10:24:41;;;;;;;;;;;15.40;99.90;;;;;;5057101;28;19932;-58
2022/09/19 10:27:11;;;;;;;;;;;15.70;99.90;;;;;;5059880;28;19928;-59
2022/09/19 10:29:47;;;;;;;;;;;15.60;99.90;;;;;;5059929;28;20365;-59
2022/09/19 10:32:14;;;;;;;;;;;15.60;99.90;;;;;;5058667;28;19938;-58
2022/09/19 10:34:42;;;;;;;;;;;15.70;99.90;;;;;;5062032;28;19964;-58
2022/09/19 10:37:11;;;;;;;;;;;15.60;99.90;;;;;;5041548;28;19924;-59
2022/09/19 10:39:42;;;;;;;;;;;15.70;99.90;;;;;;5060829;28;20026;-58
2022/09/19 10:42:27;;;;;;;;;;;15.90;99.90;;;;;;5058371;28;19925;-58
2022/09/19 10:44:53;;;;;;;;;;;16.00;99.90;;;;;;5059289;28;20436;-57
2022/09/19 10:47:18;;;;;;;;;;;15.90;99.90;;;;;;5042633;28;19924;-58
2022/09/19 10:49:47;;;;;;;;;;;16.20;99.90;;;;;;5062107;28;19924;-58
2022/09/19 10:52:27;;;;;;;;;;;16.30;99.90;;;;;;5060439;28;20286;-61
2022/09/19 10:54:53;;;;;;;;;;;16.10;99.90;;;;;;5040443;28;19924;-61
2022/09/19 10:57:35;;;;;;;;;;;15.80;99.90;;;;;;5060744;28;19931;-58
2022/09/19 11:00:02;;;;;;;;;;;15.60;99.90;;;;;;5054470;28;19939;-58
2022/09/19 11:02:28;;;;;;;;;;;15.80;99.90;;;;;;5059451;28;20013;-58
2022/09/19 11:05:03;;;;;;;;;;;16.50;99.90;;;;;;5050394;28;19974;-58
2022/09/19 11:07:41;;;;;;;;;;;16.70;99.90;;;;;;5067853;28;19932;-58
2022/09/19 11:10:26;;;;;;;;;;;16.90;99.90;;;;;;5067548;28;19928;-58
2022/09/19 11:13:04;;;;;;;;;;;16.00;99.90;;;;;;5071637;28;19924;-59
2022/09/19 11:15:31;;;;;;;;;;;15.70;99.90;;;;;;5072286;28;20065;-58
2022/09/19 11:18:09;;;;;;;;;;;15.40;99.90;;;;;;5071153;28;19931;-58
2022/09/19 11:20:40;;;;;;;;;;;15.40;99.90;;;;;;5070788;28;20044;-61
2022/09/19 11:23:15;;;;;;;;;;;15.80;99.90;;;;;;5070890;28;20461;-58
2022/09/19 11:25:41;;;;;;;;;;;16.20;99.90;;;;;;5066950;28;19924;-59
2022/09/19 11:28:25;;;;;;;;;;;16.50;99.90;;;;;;5068932;28;19981;-59
2022/09/19 11:31:05;;;;;;;;;;;16.80;99.90;;;;;;5071365;28;19984;-58
2022/09/19 11:33:43;;;;;;;;;;;17.60;99.90;;;;;;5070920;28;20619;-58
2022/09/19 11:36:28;;;;;;;;;;;17.60;99.90;;;;;;5074261;28;20573;-59
2022/09/19 11:38:53;;;;;;;;;;;18.00;99.90;;;;;;5069559;28;19931;-58
2022/09/19 11:41:38;;;;;;;;;;;17.30;99.90;;;;;;5071234;28;19924;-58
2022/09/19 11:44:03;;;;;;;;;;;17.30;99.90;;;;;;5069744;28;20094;-58
2022/09/19 11:46:37;;;;;;;;;;;17.90;99.90;;;;;;5068648;28;20550;-59
2022/09/19 11:49:13;;;;;;;;;;;18.50;99.90;;;;;;5065888;28;19928;-59
2022/09/19 11:52:04;;;;;;;;;;;18.50;99.90;;;;;;5063667;28;19947;-58
2022/09/19 11:54:47;;;;;;;;;;;17.90;99.90;;;;;;5068565;28;20054;-58
2022/09/19 11:57:33;;;;;;;;;;;18.10;99.90;;;;;;5053186;28;19970;-60
2022/09/19 12:00:04;;;;;;;;;;;18.00;99.90;;;;;;5057345;28;20018;-60
2022/09/19 12:02:36;;;;;;;;;;;18.40;99.90;;;;;;5069019;28;20428;-59
2022/09/19 12:05:15;;;;;;;;;;;19.00;99.90;;;;;;5065858;28;19986;-58
2022/09/19 12:07:56;;;;;;;;;;;19.10;99.90;;;;;;5064458;28;19925;-59
2022/09/19 12:10:25;;;;;;;;;;;19.40;99.90;;;;;;5067788;28;19931;-58
2022/09/19 12:13:02;;;;;;;;;;;18.80;99.90;;;;;;5064937;28;19928;-59
2022/09/19 12:15:30;;;;;;;;;;;18.50;99.90;;;;;;5069012;28;19970;-58
2022/09/19 12:17:58;;;;;;;;;;;18.70;99.90;;;;;;5068662;28;19987;-59
2022/09/19 12:20:43;;;;;;;;;;;19.00;99.90;;;;;;5058606;28;19928;-58
2022/09/19 12:25:57;;;;;;;;;;;21.20;99.90;;;;;;5057034;28;19936;-59
2022/09/19 12:28:26;;;;;;;;;;;20.90;99.90;;;;;;5052189;28;19932;-61
2022/09/19 12:30:55;;;;;;;;;;;22.10;99.90;;;;;;5070233;28;19924;-59
2022/09/19 12:33:32;;;;;;;;;;;23.40;99.90;;;;;;5069182;28;19924;-60
2022/09/19 12:36:05;;;;;;;;;;;25.70;99.40;;;;;;5071870;28;20031;-58
2022/09/19 12:38:46;;;;;;;;;;;24.20;97.20;;;;;;5060856;28;19924;-60
2022/09/19 12:41:17;;;;;;;;;;;22.40;98.40;;;;;;5069774;28;20331;-58
2022/09/19 12:43:46;;;;;;;;;;;20.00;99.70;;;;;;5066822;28;19930;-63
2022/09/19 12:46:14;;;;;;;;;;;21.50;99.10;;;;;;5057655;28;19928;-58
2022/09/19 12:48:47;;;;;;;;;;;21.70;99.20;;;;;;5059597;28;19931;-58
2022/09/19 12:51:28;;;;;;;;;;;21.40;99.20;;;;;;5068048;28;19964;-58
2022/09/19 12:54:01;;;;;;;;;;;23.20;98.90;;;;;;5069106;28;19924;-58
2022/09/19 12:56:32;;;;;;;;;;;22.90;97.40;;;;;;5069123;28;19928;-58
2022/09/19 12:59:08;;;;;;;;;;;22.70;98.10;;;;;;5067651;28;19934;-58
2022/09/19 13:01:39;;;;;;;;;;;23.50;96.20;;;;;;5069707;28;20385;-58
2022/09/19 13:04:09;;;;;;;;;;;24.00;96.30;;;;;;5068179;28;19924;-59
2022/09/19 13:06:41;;;;;;;;;;;23.70;95.60;;;;;;5068993;28;19976;-59
2022/09/19 13:09:13;;;;;;;;;;;22.30;96.50;;;;;;5068397;28;20323;-58
2022/09/19 13:11:45;;;;;;;;;;;21.10;96.90;;;;;;5052486;28;19932;-64
2022/09/19 13:14:12;;;;;;;;;;;19.40;98.50;;;;;;5067307;28;19925;-61
2022/09/19 13:23:30;;;;;;;;;;;19.00;99.90;;;;;;5067692;28;19924;-59
2022/09/19 13:24:44;;;;;;;;;;;19.00;99.90;;;;;;5068642;28;19924;-59
2022/09/19 13:27:11;;;;;;;;;;;18.80;99.90;;;;;;5057058;28;19948;-59
2022/09/19 13:29:40;;;;;;;;;;;18.10;99.90;;;;;;5068654;28;19979;-59
2022/09/19 13:32:24;;;;;;;;;;;17.90;99.90;;;;;;5068729;28;19924;-59
2022/09/19 13:35:05;;;;;;;;;;;17.90;99.90;;;;;;5067527;28;20439;-59
2022/09/19 13:37:32;;;;;;;;;;;18.50;99.90;;;;;;5067668;28;20412;-58
2022/09/19 13:39:58;;;;;;;;;;;18.20;99.90;;;;;;5051336;28;19925;-60
2022/09/19 13:42:36;;;;;;;;;;;17.40;99.90;;;;;;5065436;28;20387;-59
2022/09/19 13:45:08;;;;;;;;;;;17.10;99.90;;;;;;5057175;28;20264;-59
2022/09/19 13:47:39;;;;;;;;;;;17.50;99.90;;;;;;5068569;28;19978;-59
2022/09/19 13:50:24;;;;;;;;;;;17.50;99.90;;;;;;5069208;28;20577;-59
2022/09/19 13:53:01;;;;;;;;;;;17.50;99.90;;;;;;5026367;28;19967;-58
2022/09/19 13:55:41;;;;;;;;;;;17.80;99.90;;;;;;5066921;28;20449;-58
2022/09/19 13:58:27;;;;;;;;;;;18.20;99.90;;;;;;5061416;28;19971;-58
2022/09/19 14:01:19;;;;;;;;;;;18.10;99.90;;;;;;5061755;28;19961;-58
2022/09/19 14:04:52;;;;;;;;;;;17.30;99.90;;;;;;5056624;28;20009;-58
2022/09/19 14:06:43;;;;;;;;;;;17.10;99.90;;;;;;5062717;28;20420;-58
2022/09/19 14:09:30;;;;;;;;;;;16.90;99.90;;;;;;5064351;28;20031;-59
2022/09/19 14:11:58;;;;;;;;;;;16.90;99.90;;;;;;5058379;28;20699;-58
2022/09/19 14:14:41;;;;;;;;;;;16.80;99.90;;;;;;5066585;28;19970;-59
2022/09/19 14:17:18;;;;;;;;;;;16.20;99.90;;;;;;5065782;28;20031;-59
2022/09/19 14:19:53;;;;;;;;;;;15.60;99.90;;;;;;5067871;28;19959;-58
2022/09/19 14:22:37;;;;;;;;;;;15.10;99.90;;;;;;5067123;28;19924;-58
2022/09/19 14:25:20;;;;;;;;;;;14.70;99.90;;;;;;5067781;28;20390;-59
2022/09/19 14:27:45;;;;;;;;;;;14.20;99.90;;;;;;5066067;28;20783;-58
2022/09/19 14:30:30;;;;;;;;;;;14.50;99.90;;;;;;5063755;28;20006;-60
2022/09/19 14:33:14;;;;;;;;;;;14.70;99.90;;;;;;5068741;28;19957;-58
2022/09/19 14:35:44;;;;;;;;;;;15.70;99.90;;;;;;5046875;28;19932;-58
2022/09/19 14:38:31;;;;;;;;;;;16.80;99.90;;;;;;5066471;28;20012;-58
2022/09/19 14:41:03;;;;;;;;;;;16.70;99.90;;;;;;5063539;28;19925;-58
2022/09/19 14:43:44;;;;;;;;;;;16.40;99.90;;;;;;5068874;28;19924;-58
2022/09/19 14:46:10;;;;;;;;;;;16.10;99.90;;;;;;5068548;28;19970;-58
2022/09/19 14:48:46;;;;;;;;;;;16.40;99.90;;;;;;5071773;28;20394;-58
2022/09/19 14:51:30;;;;;;;;;;;16.40;99.90;;;;;;5072558;28;20297;-58
2022/09/19 14:54:04;;;;;;;;;;;16.20;99.90;;;;;;5071450;28;19924;-58
2022/09/19 14:56:30;;;;;;;;;;;16.20;99.90;;;;;;5065208;28;19925;-59